sensor_id;sensor_type;location;lat;lon;timestamp;temperature;humidity
69715;HTU21D;56981;53.532;49.398;2022-12-29T00:01:30;-5.92;77.97
69715;HTU21D;56981;53.532;49.398;2022-12-29T00:03:56;-5.91;78.24
69715;HTU21D;56981;53.532;49.398;2022-12-29T00:06:24;-5.96;77.87
69715;HTU21D;56981;53.532;49.398;2022-12-29T00:08:53;-5.98;78.31
69715;HTU21D;56981;53.532;49.398;2022-12-29T00:11:22;-6.02;78.76
69715;HTU21D;56981;53.532;49.398;2022-12-29T00:13:49;-6.01;78.94
69715;HTU21D;56981;53.532;49.398;2022-12-29T00:16:34;-5.97;78.95
69715;HTU21D;56981;53.532;49.398;2022-12-29T00:19:03;-5.96;78.85
69715;HTU21D;56981;53.532;49.398;2022-12-29T00:21:32;-5.99;78.45
69715;HTU21D;56981;53.532;49.398;2022-12-29T00:24:21;-6.01;78.62
69715;HTU21D;56981;53.532;49.398;2022-12-29T00:29:50;-6.02;78.99
69715;HTU21D;56981;53.532;49.398;2022-12-29T00:32:35;-6.00;78.52
69715;HTU21D;56981;53.532;49.398;2022-12-29T00:37:50;-6.03;78.69
69715;HTU21D;56981;53.532;49.398;2022-12-29T00:40:34;-6.01;77.91
69715;HTU21D;56981;53.532;49.398;2022-12-29T00:43:19;-6.02;78.27
69715;HTU21D;56981;53.532;49.398;2022-12-29T00:46:06;-6.00;78.26
69715;HTU21D;56981;53.532;49.398;2022-12-29T00:48:36;-5.97;78.49
69715;HTU21D;56981;53.532;49.398;2022-12-29T00:51:21;-5.89;78.18
69715;HTU21D;56981;53.532;49.398;2022-12-29T00:53:47;-5.90;77.76
69715;HTU21D;56981;53.532;49.398;2022-12-29T00:56:13;-5.94;77.49
69715;HTU21D;56981;53.532;49.398;2022-12-29T00:58:39;-5.89;77.81
69715;HTU21D;56981;53.532;49.398;2022-12-29T01:01:08;-5.88;77.68
69715;HTU21D;56981;53.532;49.398;2022-12-29T01:03:38;-5.90;78.02
69715;HTU21D;56981;53.532;49.398;2022-12-29T01:06:08;-5.93;77.47
69715;HTU21D;56981;53.532;49.398;2022-12-29T01:08:38;-6.01;78.17
69715;HTU21D;56981;53.532;49.398;2022-12-29T01:11:11;-5.91;78.47
69715;HTU21D;56981;53.532;49.398;2022-12-29T01:13:39;-5.90;78.45
69715;HTU21D;56981;53.532;49.398;2022-12-29T01:16:08;-5.88;78.71
69715;HTU21D;56981;53.532;49.398;2022-12-29T01:18:39;-5.86;78.20
69715;HTU21D;56981;53.532;49.398;2022-12-29T01:21:08;-5.90;78.30
69715;HTU21D;56981;53.532;49.398;2022-12-29T01:23:44;-5.91;78.22
69715;HTU21D;56981;53.532;49.398;2022-12-29T01:26:12;-5.91;78.26
69715;HTU21D;56981;53.532;49.398;2022-12-29T01:28:40;-5.93;78.44
69715;HTU21D;56981;53.532;49.398;2022-12-29T01:31:11;-5.88;78.86
69715;HTU21D;56981;53.532;49.398;2022-12-29T01:33:40;-5.84;78.44
69715;HTU21D;56981;53.532;49.398;2022-12-29T01:36:11;-5.82;79.11
69715;HTU21D;56981;53.532;49.398;2022-12-29T01:38:40;-5.81;78.29
69715;HTU21D;56981;53.532;49.398;2022-12-29T01:41:11;-5.81;78.78
69715;HTU21D;56981;53.532;49.398;2022-12-29T01:43:47;-5.83;78.10
69715;HTU21D;56981;53.532;49.398;2022-12-29T01:46:30;-5.85;77.98
69715;HTU21D;56981;53.532;49.398;2022-12-29T01:49:09;-5.87;78.26
69715;HTU21D;56981;53.532;49.398;2022-12-29T01:51:55;-5.81;78.30
69715;HTU21D;56981;53.532;49.398;2022-12-29T01:54:26;-5.78;77.76
69715;HTU21D;56981;53.532;49.398;2022-12-29T01:56:55;-5.74;77.62
69715;HTU21D;56981;53.532;49.398;2022-12-29T01:59:27;-5.72;77.88
69715;HTU21D;56981;53.532;49.398;2022-12-29T02:01:54;-5.72;78.11
69715;HTU21D;56981;53.532;49.398;2022-12-29T02:04:22;-5.73;78.67
69715;HTU21D;56981;53.532;49.398;2022-12-29T02:07:03;-5.75;78.30
69715;HTU21D;56981;53.532;49.398;2022-12-29T02:09:31;-5.83;78.88
69715;HTU21D;56981;53.532;49.398;2022-12-29T02:11:58;-5.88;78.98
69715;HTU21D;56981;53.532;49.398;2022-12-29T02:14:24;-5.85;79.56
69715;HTU21D;56981;53.532;49.398;2022-12-29T02:19:50;-5.92;80.91
69715;HTU21D;56981;53.532;49.398;2022-12-29T02:22:27;-5.86;80.68
69715;HTU21D;56981;53.532;49.398;2022-12-29T02:25:18;-5.87;80.30
69715;HTU21D;56981;53.532;49.398;2022-12-29T02:30:37;-5.82;79.63
69715;HTU21D;56981;53.532;49.398;2022-12-29T02:41:31;-5.90;80.39
69715;HTU21D;56981;53.532;49.398;2022-12-29T02:46:41;-5.96;80.85
69715;HTU21D;56981;53.532;49.398;2022-12-29T02:49:33;-5.89;80.78
69715;HTU21D;56981;53.532;49.398;2022-12-29T02:52:02;-5.88;80.72
69715;HTU21D;56981;53.532;49.398;2022-12-29T02:54:32;-5.87;80.37
69715;HTU21D;56981;53.532;49.398;2022-12-29T03:00:00;-5.91;80.49
69715;HTU21D;56981;53.532;49.398;2022-12-29T03:16:23;-5.94;79.17
69715;HTU21D;56981;53.532;49.398;2022-12-29T03:18:59;-5.90;79.67
69715;HTU21D;56981;53.532;49.398;2022-12-29T03:21:43;-5.88;78.95
69715;HTU21D;56981;53.532;49.398;2022-12-29T03:24:38;-5.87;78.72
69715;HTU21D;56981;53.532;49.398;2022-12-29T03:27:07;-5.87;78.75
69715;HTU21D;56981;53.532;49.398;2022-12-29T03:29:39;-5.85;78.72
69715;HTU21D;56981;53.532;49.398;2022-12-29T03:32:09;-5.77;78.30
69715;HTU21D;56981;53.532;49.398;2022-12-29T03:34:38;-5.75;78.08
69715;HTU21D;56981;53.532;49.398;2022-12-29T03:37:09;-5.76;78.25
69715;HTU21D;56981;53.532;49.398;2022-12-29T03:39:36;-5.83;78.59
69715;HTU21D;56981;53.532;49.398;2022-12-29T03:42:06;-5.83;78.65
69715;HTU21D;56981;53.532;49.398;2022-12-29T03:44:41;-5.87;78.28
69715;HTU21D;56981;53.532;49.398;2022-12-29T03:47:10;-5.85;78.08
69715;HTU21D;56981;53.532;49.398;2022-12-29T03:49:37;-5.90;78.07
69715;HTU21D;56981;53.532;49.398;2022-12-29T03:52:03;-5.91;78.15
69715;HTU21D;56981;53.532;49.398;2022-12-29T03:54:30;-5.90;78.60
69715;HTU21D;56981;53.532;49.398;2022-12-29T03:56:56;-5.88;78.96
69715;HTU21D;56981;53.532;49.398;2022-12-29T03:59:23;-5.82;79.20
69715;HTU21D;56981;53.532;49.398;2022-12-29T04:01:49;-5.78;79.11
69715;HTU21D;56981;53.532;49.398;2022-12-29T04:04:15;-5.87;79.73
69715;HTU21D;56981;53.532;49.398;2022-12-29T04:06:41;-5.87;80.56
69715;HTU21D;56981;53.532;49.398;2022-12-29T04:09:09;-5.91;80.11
69715;HTU21D;56981;53.532;49.398;2022-12-29T04:11:38;-5.93;80.62
69715;HTU21D;56981;53.532;49.398;2022-12-29T04:14:07;-5.99;80.81
69715;HTU21D;56981;53.532;49.398;2022-12-29T04:16:43;-6.04;81.06
69715;HTU21D;56981;53.532;49.398;2022-12-29T04:19:10;-5.99;81.21
69715;HTU21D;56981;53.532;49.398;2022-12-29T04:21:36;-5.98;80.70
69715;HTU21D;56981;53.532;49.398;2022-12-29T04:24:02;-5.98;80.64
69715;HTU21D;56981;53.532;49.398;2022-12-29T04:26:32;-5.87;80.69
69715;HTU21D;56981;53.532;49.398;2022-12-29T04:29:01;-5.90;79.67
69715;HTU21D;56981;53.532;49.398;2022-12-29T04:31:27;-5.87;79.86
69715;HTU21D;56981;53.532;49.398;2022-12-29T04:33:53;-5.85;79.49
69715;HTU21D;56981;53.532;49.398;2022-12-29T04:36:19;-5.87;79.62
69715;HTU21D;56981;53.532;49.398;2022-12-29T04:38:45;-5.89;79.56
69715;HTU21D;56981;53.532;49.398;2022-12-29T04:41:11;-5.91;79.73
69715;HTU21D;56981;53.532;49.398;2022-12-29T04:43:37;-5.89;79.84
69715;HTU21D;56981;53.532;49.398;2022-12-29T04:46:03;-5.88;79.74
69715;HTU21D;56981;53.532;49.398;2022-12-29T04:48:29;-5.86;79.71
69715;HTU21D;56981;53.532;49.398;2022-12-29T04:50:55;-5.88;80.40
69715;HTU21D;56981;53.532;49.398;2022-12-29T04:53:21;-5.84;80.51
69715;HTU21D;56981;53.532;49.398;2022-12-29T04:55:52;-5.84;80.07
69715;HTU21D;56981;53.532;49.398;2022-12-29T04:58:19;-5.87;80.66
69715;HTU21D;56981;53.532;49.398;2022-12-29T05:00:50;-5.84;79.78
69715;HTU21D;56981;53.532;49.398;2022-12-29T05:03:20;-5.83;80.00
69715;HTU21D;56981;53.532;49.398;2022-12-29T05:05:46;-5.78;79.74
69715;HTU21D;56981;53.532;49.398;2022-12-29T05:08:12;-5.81;79.40
69715;HTU21D;56981;53.532;49.398;2022-12-29T05:10:38;-5.77;79.78
69715;HTU21D;56981;53.532;49.398;2022-12-29T05:13:04;-5.82;79.68
69715;HTU21D;56981;53.532;49.398;2022-12-29T05:15:30;-5.74;79.35
69715;HTU21D;56981;53.532;49.398;2022-12-29T05:17:56;-5.71;78.92
69715;HTU21D;56981;53.532;49.398;2022-12-29T05:20:22;-5.65;78.46
69715;HTU21D;56981;53.532;49.398;2022-12-29T05:22:52;-5.67;78.56
69715;HTU21D;56981;53.532;49.398;2022-12-29T05:25:28;-5.64;78.90
69715;HTU21D;56981;53.532;49.398;2022-12-29T05:27:55;-5.61;78.32
69715;HTU21D;56981;53.532;49.398;2022-12-29T05:30:23;-5.59;78.56
69715;HTU21D;56981;53.532;49.398;2022-12-29T05:32:49;-5.57;78.78
69715;HTU21D;56981;53.532;49.398;2022-12-29T05:35:15;-5.57;78.63
69715;HTU21D;56981;53.532;49.398;2022-12-29T05:37:41;-5.59;78.82
69715;HTU21D;56981;53.532;49.398;2022-12-29T05:40:07;-5.63;78.95
69715;HTU21D;56981;53.532;49.398;2022-12-29T05:42:34;-5.59;78.98
69715;HTU21D;56981;53.532;49.398;2022-12-29T05:45:00;-5.62;79.46
69715;HTU21D;56981;53.532;49.398;2022-12-29T05:47:26;-5.60;78.80
69715;HTU21D;56981;53.532;49.398;2022-12-29T05:49:52;-5.65;79.10
69715;HTU21D;56981;53.532;49.398;2022-12-29T05:52:18;-5.62;80.01
69715;HTU21D;56981;53.532;49.398;2022-12-29T05:54:44;-5.59;79.24
69715;HTU21D;56981;53.532;49.398;2022-12-29T05:57:10;-5.56;78.92
69715;HTU21D;56981;53.532;49.398;2022-12-29T05:59:36;-5.58;79.03
69715;HTU21D;56981;53.532;49.398;2022-12-29T06:02:03;-5.49;78.81
69715;HTU21D;56981;53.532;49.398;2022-12-29T06:04:29;-5.47;78.45
69715;HTU21D;56981;53.532;49.398;2022-12-29T06:06:58;-5.42;77.95
69715;HTU21D;56981;53.532;49.398;2022-12-29T06:09:24;-5.35;78.71
69715;HTU21D;56981;53.532;49.398;2022-12-29T06:11:50;-5.32;77.89
69715;HTU21D;56981;53.532;49.398;2022-12-29T06:14:19;-5.32;77.20
69715;HTU21D;56981;53.532;49.398;2022-12-29T06:16:46;-5.28;76.57
69715;HTU21D;56981;53.532;49.398;2022-12-29T06:19:12;-5.19;76.60
69715;HTU21D;56981;53.532;49.398;2022-12-29T06:21:38;-5.14;76.18
69715;HTU21D;56981;53.532;49.398;2022-12-29T06:24:10;-5.20;76.37
69715;HTU21D;56981;53.532;49.398;2022-12-29T06:26:55;-5.27;75.92
69715;HTU21D;56981;53.532;49.398;2022-12-29T06:29:24;-5.23;76.87
69715;HTU21D;56981;53.532;49.398;2022-12-29T06:31:50;-5.13;75.92
69715;HTU21D;56981;53.532;49.398;2022-12-29T06:34:19;-4.99;75.92
69715;HTU21D;56981;53.532;49.398;2022-12-29T06:36:45;-5.03;75.26
69715;HTU21D;56981;53.532;49.398;2022-12-29T06:39:11;-4.94;75.83
69715;HTU21D;56981;53.532;49.398;2022-12-29T06:41:40;-4.93;74.75
69715;HTU21D;56981;53.532;49.398;2022-12-29T06:44:06;-4.89;75.02
69715;HTU21D;56981;53.532;49.398;2022-12-29T06:46:35;-4.81;75.60
69715;HTU21D;56981;53.532;49.398;2022-12-29T06:49:02;-4.80;75.02
69715;HTU21D;56981;53.532;49.398;2022-12-29T06:51:28;-4.68;74.54
69715;HTU21D;56981;53.532;49.398;2022-12-29T06:53:57;-4.64;74.53
69715;HTU21D;56981;53.532;49.398;2022-12-29T06:56:26;-4.56;74.15
69715;HTU21D;56981;53.532;49.398;2022-12-29T06:59:02;-4.39;73.22
69715;HTU21D;56981;53.532;49.398;2022-12-29T07:01:29;-4.21;73.79
69715;HTU21D;56981;53.532;49.398;2022-12-29T07:03:55;-4.09;72.77
69715;HTU21D;56981;53.532;49.398;2022-12-29T07:06:30;-4.04;72.34
69715;HTU21D;56981;53.532;49.398;2022-12-29T07:08:57;-4.06;73.01
69715;HTU21D;56981;53.532;49.398;2022-12-29T07:11:23;-4.19;72.17
69715;HTU21D;56981;53.532;49.398;2022-12-29T07:13:49;-4.57;73.80
69715;HTU21D;56981;53.532;49.398;2022-12-29T07:16:16;-4.73;75.13
69715;HTU21D;56981;53.532;49.398;2022-12-29T07:18:42;-4.79;75.11
69715;HTU21D;56981;53.532;49.398;2022-12-29T07:21:10;-4.82;75.24
69715;HTU21D;56981;53.532;49.398;2022-12-29T07:23:39;-4.74;74.73
69715;HTU21D;56981;53.532;49.398;2022-12-29T07:26:16;-4.65;74.19
69715;HTU21D;56981;53.532;49.398;2022-12-29T07:28:44;-4.57;74.15
69715;HTU21D;56981;53.532;49.398;2022-12-29T07:31:18;-4.49;73.48
69715;HTU21D;56981;53.532;49.398;2022-12-29T07:33:49;-4.53;74.13
69715;HTU21D;56981;53.532;49.398;2022-12-29T07:36:19;-4.50;73.90
69715;HTU21D;56981;53.532;49.398;2022-12-29T07:38:48;-4.44;73.86
69715;HTU21D;56981;53.532;49.398;2022-12-29T07:41:14;-4.42;73.52
69715;HTU21D;56981;53.532;49.398;2022-12-29T07:43:57;-4.43;73.87
69715;HTU21D;56981;53.532;49.398;2022-12-29T07:46:23;-4.45;73.48
69715;HTU21D;56981;53.532;49.398;2022-12-29T07:48:49;-4.41;73.32
69715;HTU21D;56981;53.532;49.398;2022-12-29T07:51:19;-4.52;74.00
69715;HTU21D;56981;53.532;49.398;2022-12-29T07:53:45;-4.40;73.35
69715;HTU21D;56981;53.532;49.398;2022-12-29T07:56:14;-4.40;73.52
69715;HTU21D;56981;53.532;49.398;2022-12-29T07:58:49;-4.37;73.98
69715;HTU21D;56981;53.532;49.398;2022-12-29T08:01:15;-4.36;73.97
69715;HTU21D;56981;53.532;49.398;2022-12-29T08:04:04;-4.34;74.54
69715;HTU21D;56981;53.532;49.398;2022-12-29T08:06:36;-4.28;74.63
69715;HTU21D;56981;53.532;49.398;2022-12-29T08:09:04;-4.46;74.47
69715;HTU21D;56981;53.532;49.398;2022-12-29T08:11:39;-4.59;75.34
69715;HTU21D;56981;53.532;49.398;2022-12-29T08:14:06;-4.63;75.08
69715;HTU21D;56981;53.532;49.398;2022-12-29T08:16:36;-4.60;74.99
69715;HTU21D;56981;53.532;49.398;2022-12-29T08:19:02;-4.53;76.68
69715;HTU21D;56981;53.532;49.398;2022-12-29T08:21:35;-4.65;76.31
69715;HTU21D;56981;53.532;49.398;2022-12-29T08:24:01;-4.60;77.66
69715;HTU21D;56981;53.532;49.398;2022-12-29T08:26:30;-4.43;76.71
69715;HTU21D;56981;53.532;49.398;2022-12-29T08:28:56;-4.38;76.93
69715;HTU21D;56981;53.532;49.398;2022-12-29T08:31:23;-4.38;76.24
69715;HTU21D;56981;53.532;49.398;2022-12-29T08:33:49;-4.24;76.50
69715;HTU21D;56981;53.532;49.398;2022-12-29T08:36:16;-4.22;76.35
69715;HTU21D;56981;53.532;49.398;2022-12-29T08:38:42;-4.16;74.60
69715;HTU21D;56981;53.532;49.398;2022-12-29T08:41:18;-4.13;74.51
69715;HTU21D;56981;53.532;49.398;2022-12-29T08:43:48;-3.93;75.10
69715;HTU21D;56981;53.532;49.398;2022-12-29T08:46:24;-3.97;73.90
69715;HTU21D;56981;53.532;49.398;2022-12-29T08:48:54;-3.84;73.86
69715;HTU21D;56981;53.532;49.398;2022-12-29T08:51:30;-3.87;74.54
69715;HTU21D;56981;53.532;49.398;2022-12-29T08:53:57;-3.78;73.49
69715;HTU21D;56981;53.532;49.398;2022-12-29T08:56:23;-3.79;74.28
69715;HTU21D;56981;53.532;49.398;2022-12-29T08:58:50;-3.79;74.12
69715;HTU21D;56981;53.532;49.398;2022-12-29T09:01:16;-3.62;74.03
69715;HTU21D;56981;53.532;49.398;2022-12-29T09:03:42;-3.52;73.35
69715;HTU21D;56981;53.532;49.398;2022-12-29T09:06:08;-3.64;74.41
69715;HTU21D;56981;53.532;49.398;2022-12-29T09:08:36;-3.79;73.21
69715;HTU21D;56981;53.532;49.398;2022-12-29T09:11:17;-3.62;73.70
69715;HTU21D;56981;53.532;49.398;2022-12-29T09:13:44;-3.40;72.64
69715;HTU21D;56981;53.532;49.398;2022-12-29T09:16:13;-3.48;72.16
69715;HTU21D;56981;53.532;49.398;2022-12-29T09:18:45;-3.60;72.29
69715;HTU21D;56981;53.532;49.398;2022-12-29T09:21:11;-3.56;72.87
69715;HTU21D;56981;53.532;49.398;2022-12-29T09:23:40;-3.39;72.46
69715;HTU21D;56981;53.532;49.398;2022-12-29T09:26:07;-3.48;73.07
69715;HTU21D;56981;53.532;49.398;2022-12-29T09:28:34;-3.32;72.00
69715;HTU21D;56981;53.532;49.398;2022-12-29T09:31:00;-3.53;72.37
69715;HTU21D;56981;53.532;49.398;2022-12-29T09:33:27;-3.51;73.06
69715;HTU21D;56981;53.532;49.398;2022-12-29T09:35:56;-3.39;72.45
69715;HTU21D;56981;53.532;49.398;2022-12-29T09:38:26;-3.34;71.63
69715;HTU21D;56981;53.532;49.398;2022-12-29T09:41:25;-3.37;71.10
69715;HTU21D;56981;53.532;49.398;2022-12-29T09:46:38;-3.01;70.44
69715;HTU21D;56981;53.532;49.398;2022-12-29T09:49:47;-2.84;69.19
69715;HTU21D;56981;53.532;49.398;2022-12-29T09:52:23;-2.61;69.12
69715;HTU21D;56981;53.532;49.398;2022-12-29T09:57:34;-2.91;68.98
69715;HTU21D;56981;53.532;49.398;2022-12-29T10:00:12;-2.68;68.56
69715;HTU21D;56981;53.532;49.398;2022-12-29T10:02:56;-2.57;67.93
69715;HTU21D;56981;53.532;49.398;2022-12-29T10:08:37;-2.56;68.02
69715;HTU21D;56981;53.532;49.398;2022-12-29T10:22:48;-3.40;71.29
69715;HTU21D;56981;53.532;49.398;2022-12-29T10:25:26;-3.45;71.33
69715;HTU21D;56981;53.532;49.398;2022-12-29T10:27:54;-3.57;72.38
69715;HTU21D;56981;53.532;49.398;2022-12-29T10:30:22;-3.63;73.50
69715;HTU21D;56981;53.532;49.398;2022-12-29T10:32:57;-3.63;72.70
69715;HTU21D;56981;53.532;49.398;2022-12-29T10:35:29;-3.79;71.79
69715;HTU21D;56981;53.532;49.398;2022-12-29T10:38:02;-3.69;72.12
69715;HTU21D;56981;53.532;49.398;2022-12-29T10:41:21;-3.65;71.84
69715;HTU21D;56981;53.532;49.398;2022-12-29T10:43:54;-3.67;71.23
69715;HTU21D;56981;53.532;49.398;2022-12-29T10:46:36;-3.45;70.98
69715;HTU21D;56981;53.532;49.398;2022-12-29T10:49:04;-3.55;71.00
69715;HTU21D;56981;53.532;49.398;2022-12-29T10:51:35;-3.64;72.51
69715;HTU21D;56981;53.532;49.398;2022-12-29T10:57:01;-3.69;72.09
69715;HTU21D;56981;53.532;49.398;2022-12-29T10:59:36;-3.80;72.22
69715;HTU21D;56981;53.532;49.398;2022-12-29T11:07:31;-4.11;73.47
69715;HTU21D;56981;53.532;49.398;2022-12-29T11:10:17;-4.20;73.86
69715;HTU21D;56981;53.532;49.398;2022-12-29T11:13:02;-4.30;74.31
69715;HTU21D;56981;53.532;49.398;2022-12-29T11:15:58;-4.41;74.82
69715;HTU21D;56981;53.532;49.398;2022-12-29T11:18:38;-4.39;75.29
69715;HTU21D;56981;53.532;49.398;2022-12-29T11:24:14;-4.42;75.60
69715;HTU21D;56981;53.532;49.398;2022-12-29T11:26:44;-4.26;75.17
69715;HTU21D;56981;53.532;49.398;2022-12-29T11:31:44;-4.05;74.16
69715;HTU21D;56981;53.532;49.398;2022-12-29T11:34:26;-3.95;74.47
69715;HTU21D;56981;53.532;49.398;2022-12-29T11:37:04;-4.08;74.27
69715;HTU21D;56981;53.532;49.398;2022-12-29T11:42:23;-4.10;73.71
69715;HTU21D;56981;53.532;49.398;2022-12-29T11:44:51;-4.23;74.45
69715;HTU21D;56981;53.532;49.398;2022-12-29T11:47:29;-4.34;75.38
69715;HTU21D;56981;53.532;49.398;2022-12-29T11:50:01;-4.48;75.79
69715;HTU21D;56981;53.532;49.398;2022-12-29T11:52:33;-4.56;76.82
69715;HTU21D;56981;53.532;49.398;2022-12-29T11:55:03;-4.59;77.05
69715;HTU21D;56981;53.532;49.398;2022-12-29T11:57:32;-4.57;77.02
69715;HTU21D;56981;53.532;49.398;2022-12-29T12:00:02;-4.59;78.30
69715;HTU21D;56981;53.532;49.398;2022-12-29T12:02:50;-4.67;76.76
69715;HTU21D;56981;53.532;49.398;2022-12-29T12:08:51;-4.72;77.92
69715;HTU21D;56981;53.532;49.398;2022-12-29T12:11:37;-4.74;77.37
69715;HTU21D;56981;53.532;49.398;2022-12-29T12:20:36;-4.78;78.45
69715;HTU21D;56981;53.532;49.398;2022-12-29T12:34:36;-4.85;78.88
69715;HTU21D;56981;53.532;49.398;2022-12-29T12:40:23;-4.85;79.49
69715;HTU21D;56981;53.532;49.398;2022-12-29T12:43:04;-4.90;79.40
69715;HTU21D;56981;53.532;49.398;2022-12-29T12:46:14;-4.91;79.07
69715;HTU21D;56981;53.532;49.398;2022-12-29T12:48:51;-5.03;80.06
69715;HTU21D;56981;53.532;49.398;2022-12-29T12:58:55;-5.08;80.87
69715;HTU21D;56981;53.532;49.398;2022-12-29T13:10:43;-5.18;81.62
69715;HTU21D;56981;53.532;49.398;2022-12-29T13:23:37;-5.05;80.59
69715;HTU21D;56981;53.532;49.398;2022-12-29T13:31:54;-4.96;80.27
69715;HTU21D;56981;53.532;49.398;2022-12-29T13:34:34;-4.97;79.63
69715;HTU21D;56981;53.532;49.398;2022-12-29T13:37:20;-4.98;79.82
69715;HTU21D;56981;53.532;49.398;2022-12-29T13:39:53;-4.97;80.34
69715;HTU21D;56981;53.532;49.398;2022-12-29T13:42:24;-5.01;79.84
69715;HTU21D;56981;53.532;49.398;2022-12-29T13:44:59;-5.04;80.35
69715;HTU21D;56981;53.532;49.398;2022-12-29T13:47:40;-5.05;80.01
69715;HTU21D;56981;53.532;49.398;2022-12-29T13:50:17;-5.13;80.01
69715;HTU21D;56981;53.532;49.398;2022-12-29T13:55:49;-5.16;80.29
69715;HTU21D;56981;53.532;49.398;2022-12-29T13:58:43;-5.10;80.43
69715;HTU21D;56981;53.532;49.398;2022-12-29T14:01:35;-5.17;79.91
69715;HTU21D;56981;53.532;49.398;2022-12-29T14:04:26;-5.14;80.18
69715;HTU21D;56981;53.532;49.398;2022-12-29T14:07:04;-5.12;80.00
69715;HTU21D;56981;53.532;49.398;2022-12-29T14:09:48;-5.17;80.76
69715;HTU21D;56981;53.532;49.398;2022-12-29T14:12:32;-5.15;81.04
69715;HTU21D;56981;53.532;49.398;2022-12-29T14:15:15;-5.13;80.14
69715;HTU21D;56981;53.532;49.398;2022-12-29T14:18:19;-5.15;80.91
69715;HTU21D;56981;53.532;49.398;2022-12-29T14:21:02;-5.11;81.00
69715;HTU21D;56981;53.532;49.398;2022-12-29T14:23:44;-5.07;80.31
69715;HTU21D;56981;53.532;49.398;2022-12-29T14:28:46;-5.05;80.17
69715;HTU21D;56981;53.532;49.398;2022-12-29T14:39:40;-4.75;79.33
69715;HTU21D;56981;53.532;49.398;2022-12-29T14:45:02;-4.68;78.99
69715;HTU21D;56981;53.532;49.398;2022-12-29T14:47:40;-4.75;78.93
69715;HTU21D;56981;53.532;49.398;2022-12-29T14:53:03;-4.80;79.82
69715;HTU21D;56981;53.532;49.398;2022-12-29T14:55:45;-4.88;79.56
69715;HTU21D;56981;53.532;49.398;2022-12-29T14:58:32;-4.91;79.80
69715;HTU21D;56981;53.532;49.398;2022-12-29T15:01:01;-4.89;80.24
69715;HTU21D;56981;53.532;49.398;2022-12-29T15:03:43;-4.89;80.91
69715;HTU21D;56981;53.532;49.398;2022-12-29T15:06:17;-4.89;80.40
69715;HTU21D;56981;53.532;49.398;2022-12-29T15:08:55;-4.87;80.67
69715;HTU21D;56981;53.532;49.398;2022-12-29T15:11:49;-4.86;80.18
69715;HTU21D;56981;53.532;49.398;2022-12-29T15:14:37;-4.89;80.14
69715;HTU21D;56981;53.532;49.398;2022-12-29T15:17:27;-4.88;80.37
69715;HTU21D;56981;53.532;49.398;2022-12-29T15:19:55;-4.87;80.16
69715;HTU21D;56981;53.532;49.398;2022-12-29T15:22:22;-4.89;80.52
69715;HTU21D;56981;53.532;49.398;2022-12-29T15:24:51;-4.83;79.86
69715;HTU21D;56981;53.532;49.398;2022-12-29T15:27:23;-4.84;79.85
69715;HTU21D;56981;53.532;49.398;2022-12-29T15:30:02;-4.86;79.79
69715;HTU21D;56981;53.532;49.398;2022-12-29T15:32:38;-4.79;79.77
69715;HTU21D;56981;53.532;49.398;2022-12-29T15:35:33;-4.76;80.16
69715;HTU21D;56981;53.532;49.398;2022-12-29T15:38:00;-4.79;79.33
69715;HTU21D;56981;53.532;49.398;2022-12-29T15:40:31;-4.79;80.10
69715;HTU21D;56981;53.532;49.398;2022-12-29T15:45:55;-4.83;80.00
69715;HTU21D;56981;53.532;49.398;2022-12-29T15:48:23;-4.81;79.93
69715;HTU21D;56981;53.532;49.398;2022-12-29T15:50:50;-4.84;79.87
69715;HTU21D;56981;53.532;49.398;2022-12-29T15:53:29;-4.89;80.04
69715;HTU21D;56981;53.532;49.398;2022-12-29T15:56:01;-4.94;80.20
69715;HTU21D;56981;53.532;49.398;2022-12-29T15:58:41;-4.90;80.59
69715;HTU21D;56981;53.532;49.398;2022-12-29T16:01:26;-4.91;80.47
69715;HTU21D;56981;53.532;49.398;2022-12-29T16:03:53;-4.89;80.58
69715;HTU21D;56981;53.532;49.398;2022-12-29T16:06:32;-4.89;80.35
69715;HTU21D;56981;53.532;49.398;2022-12-29T16:09:11;-4.89;80.77
69715;HTU21D;56981;53.532;49.398;2022-12-29T16:11:46;-4.95;81.34
69715;HTU21D;56981;53.532;49.398;2022-12-29T16:14:17;-4.97;80.65
69715;HTU21D;56981;53.532;49.398;2022-12-29T16:16:44;-5.02;81.41
69715;HTU21D;56981;53.532;49.398;2022-12-29T16:19:21;-5.05;81.27
69715;HTU21D;56981;53.532;49.398;2022-12-29T16:21:49;-5.10;81.53
69715;HTU21D;56981;53.532;49.398;2022-12-29T16:24:19;-5.12;81.65
69715;HTU21D;56981;53.532;49.398;2022-12-29T16:26:59;-5.09;81.76
69715;HTU21D;56981;53.532;49.398;2022-12-29T16:29:29;-5.09;81.63
69715;HTU21D;56981;53.532;49.398;2022-12-29T16:31:58;-5.09;81.77
69715;HTU21D;56981;53.532;49.398;2022-12-29T16:34:32;-5.05;81.91
69715;HTU21D;56981;53.532;49.398;2022-12-29T16:37:04;-4.98;81.55
69715;HTU21D;56981;53.532;49.398;2022-12-29T16:39:38;-4.98;81.54
69715;HTU21D;56981;53.532;49.398;2022-12-29T16:42:36;-4.91;81.39
69715;HTU21D;56981;53.532;49.398;2022-12-29T16:50:38;-4.98;81.48
69715;HTU21D;56981;53.532;49.398;2022-12-29T16:53:29;-5.04;81.63
69715;HTU21D;56981;53.532;49.398;2022-12-29T16:55:55;-5.13;82.18
69715;HTU21D;56981;53.532;49.398;2022-12-29T16:58:26;-5.12;83.23
69715;HTU21D;56981;53.532;49.398;2022-12-29T17:01:00;-5.13;82.07
69715;HTU21D;56981;53.532;49.398;2022-12-29T17:03:43;-5.16;82.62
69715;HTU21D;56981;53.532;49.398;2022-12-29T17:06:16;-5.11;82.29
69715;HTU21D;56981;53.532;49.398;2022-12-29T17:08:43;-5.10;82.17
69715;HTU21D;56981;53.532;49.398;2022-12-29T17:11:23;-5.07;82.69
69715;HTU21D;56981;53.532;49.398;2022-12-29T17:16:56;-4.94;81.80
69715;HTU21D;56981;53.532;49.398;2022-12-29T17:19:35;-4.94;82.05
69715;HTU21D;56981;53.532;49.398;2022-12-29T17:22:09;-5.00;81.66
69715;HTU21D;56981;53.532;49.398;2022-12-29T17:24:35;-5.05;81.96
69715;HTU21D;56981;53.532;49.398;2022-12-29T17:27:03;-5.18;81.99
69715;HTU21D;56981;53.532;49.398;2022-12-29T17:29:37;-5.23;82.66
69715;HTU21D;56981;53.532;49.398;2022-12-29T17:32:10;-5.29;82.73
69715;HTU21D;56981;53.532;49.398;2022-12-29T17:34:41;-5.29;83.07
69715;HTU21D;56981;53.532;49.398;2022-12-29T17:37:40;-5.29;83.55
69715;HTU21D;56981;53.532;49.398;2022-12-29T17:40:13;-5.31;82.73
69715;HTU21D;56981;53.532;49.398;2022-12-29T17:43:05;-5.35;83.11
69715;HTU21D;56981;53.532;49.398;2022-12-29T17:45:38;-5.34;83.50
69715;HTU21D;56981;53.532;49.398;2022-12-29T17:48:11;-5.32;83.12
69715;HTU21D;56981;53.532;49.398;2022-12-29T17:50:37;-5.33;83.10
69715;HTU21D;56981;53.532;49.398;2022-12-29T17:53:06;-5.28;83.19
69715;HTU21D;56981;53.532;49.398;2022-12-29T17:55:37;-5.27;83.00
69715;HTU21D;56981;53.532;49.398;2022-12-29T17:58:25;-5.29;83.03
69715;HTU21D;56981;53.532;49.398;2022-12-29T18:01:12;-5.30;83.33
69715;HTU21D;56981;53.532;49.398;2022-12-29T18:03:39;-5.33;83.01
69715;HTU21D;56981;53.532;49.398;2022-12-29T18:06:07;-5.38;83.52
69715;HTU21D;56981;53.532;49.398;2022-12-29T18:08:36;-5.40;83.42
69715;HTU21D;56981;53.532;49.398;2022-12-29T18:11:05;-5.37;83.46
69715;HTU21D;56981;53.532;49.398;2022-12-29T18:13:38;-5.37;83.31
69715;HTU21D;56981;53.532;49.398;2022-12-29T18:16:05;-5.40;83.04
69715;HTU21D;56981;53.532;49.398;2022-12-29T18:18:33;-5.42;82.81
69715;HTU21D;56981;53.532;49.398;2022-12-29T18:21:04;-5.47;82.75